createdAt,value
2023-03-06T00:02:36.908Z,13.30
2023-03-06T00:06:38.199Z,13.13
2023-03-06T00:10:40.396Z,12.77
2023-03-06T00:14:41.756Z,13.37
2023-03-06T00:18:44.011Z,14.13
2023-03-06T00:22:45.909Z,14.03
2023-03-06T00:26:47.252Z,14.30
2023-03-06T00:30:48.562Z,14.43
2023-03-06T00:34:51.383Z,14.13
2023-03-06T00:38:52.713Z,16.53
2023-03-06T00:42:54.016Z,14.57
2023-03-06T00:46:55.339Z,14.37
2023-03-06T00:50:56.621Z,16.33
2023-03-06T00:54:57.895Z,15.50
2023-03-06T00:58:59.200Z,16.53
2023-03-06T01:03:00.547Z,18.40
2023-03-06T01:07:01.902Z,16.03
2023-03-06T01:11:03.358Z,15.43
2023-03-06T01:15:05.346Z,17.23
2023-03-06T01:19:06.742Z,17.70
2023-03-06T01:23:08.109Z,17.20
2023-03-06T01:27:09.530Z,17.03
2023-03-06T01:31:11.225Z,16.30
2023-03-06T01:35:12.978Z,17.33
2023-03-06T01:39:14.353Z,22.40
2023-03-06T01:43:25.666Z,18.60
2023-03-06T01:47:27.493Z,18.03
2023-03-06T01:51:34.625Z,18.07
2023-03-06T01:55:36.810Z,18.57
2023-03-06T01:59:42.211Z,20.30
2023-03-06T02:03:44.156Z,18.37
2023-03-06T02:07:46.709Z,21.37
2023-03-06T02:11:48.082Z,19.43
2023-03-06T02:15:49.480Z,20.30
2023-03-06T02:20:12.087Z,22.73
2023-03-06T02:24:40.703Z,25.97
2023-03-06T02:28:42.389Z,26.43
2023-03-06T02:32:43.743Z,27.27
2023-03-06T02:36:55.491Z,26.20
2023-03-06T02:40:58.062Z,31.77
2023-03-06T02:45:01.765Z,28.97
2023-03-06T02:49:03.094Z,31.67
2023-03-06T02:53:05.850Z,32.53
2023-03-06T02:57:07.188Z,32.97
2023-03-06T03:01:08.771Z,31.93
2023-03-06T03:05:10.148Z,33.07
2023-03-06T03:09:11.594Z,36.43
2023-03-06T03:13:13.174Z,35.47
2023-03-06T03:17:15.105Z,34.30
2023-03-06T03:21:17.195Z,35.87
2023-03-06T03:25:19.976Z,36.47
2023-03-06T03:29:21.301Z,36.03
2023-03-06T03:33:22.623Z,42.77
2023-03-06T03:37:24.032Z,40.93
2023-03-06T03:41:25.641Z,43.93
2023-03-06T03:45:27.148Z,45.10
2023-03-06T03:49:28.488Z,40.47
2023-03-06T03:53:29.790Z,41.40
2023-03-06T03:57:31.161Z,37.70
2023-03-06T04:01:32.705Z,42.57
2023-03-06T04:05:34.131Z,40.37
2023-03-06T04:09:35.549Z,45.10
2023-03-06T04:13:36.888Z,44.03
2023-03-06T04:17:38.172Z,42.30
2023-03-06T04:21:39.549Z,42.33
2023-03-06T04:25:41.193Z,39.10
2023-03-06T04:29:42.568Z,42.87
2023-03-06T04:33:43.848Z,39.53
2023-03-06T04:37:45.194Z,41.43
2023-03-06T04:41:46.509Z,39.17
2023-03-06T04:45:48.081Z,37.27
2023-03-06T04:49:49.405Z,43.50
2023-03-06T04:53:50.722Z,43.00
2023-03-06T04:57:52.148Z,41.07
2023-03-06T05:01:54.250Z,41.83
2023-03-06T05:05:55.700Z,46.23
2023-03-06T05:09:56.986Z,44.00
2023-03-06T05:13:58.331Z,45.83
2023-03-06T05:17:59.718Z,44.20
2023-03-06T05:22:01.116Z,44.67
2023-03-06T05:26:09.353Z,47.17
2023-03-06T05:30:12.753Z,43.47
2023-03-06T05:34:14.874Z,44.20
2023-03-06T05:38:16.766Z,47.63
2023-03-06T05:42:18.470Z,38.43
2023-03-06T05:46:19.890Z,42.37
2023-03-06T05:50:21.335Z,38.27
2023-03-06T05:54:24.361Z,38.60
2023-03-06T05:58:26.336Z,39.13
2023-03-06T06:02:27.636Z,36.17
2023-03-06T06:06:29.030Z,36.63
2023-03-06T06:10:30.378Z,37.57
2023-03-06T06:14:34.134Z,35.03
2023-03-06T06:18:35.450Z,35.77
2023-03-06T06:22:40.526Z,34.97
2023-03-06T06:26:42.475Z,35.60
2023-03-06T06:30:44.031Z,33.53
2023-03-06T06:34:45.359Z,37.13
2023-03-06T06:38:46.998Z,36.67
2023-03-06T06:42:48.373Z,38.70
2023-03-06T06:47:21.264Z,32.77
2023-03-06T06:51:11.574Z,36.43
2023-03-06T06:55:13.411Z,36.03
2023-03-06T06:59:16.945Z,36.40
2023-03-06T07:03:18.746Z,35.33
2023-03-06T07:07:20.052Z,33.30
2023-03-06T07:11:22.155Z,32.97
2023-03-06T07:15:26.727Z,33.90
2023-03-06T07:19:28.149Z,36.13
2023-03-06T07:23:29.617Z,34.97
2023-03-06T07:27:30.966Z,34.27
2023-03-06T07:31:32.386Z,31.33
2023-03-06T07:35:33.941Z,32.27
2023-03-06T07:39:35.457Z,29.93
2023-03-06T07:43:36.919Z,31.40
2023-03-06T07:47:38.813Z,32.13
2023-03-06T07:51:40.270Z,30.20
2023-03-06T07:55:41.595Z,30.07
2023-03-06T07:59:42.908Z,36.33
2023-03-06T08:03:44.664Z,34.70
2023-03-06T08:07:46.114Z,31.10
2023-03-06T08:11:47.565Z,34.00
2023-03-06T08:15:49.263Z,31.83
2023-03-06T08:19:50.613Z,34.53
2023-03-06T08:23:52.481Z,34.17
2023-03-06T08:27:54.077Z,32.23
2023-03-06T08:31:55.454Z,34.27
2023-03-06T08:35:56.792Z,30.57
2023-03-06T08:39:58.637Z,35.03
2023-03-06T08:44:00.109Z,32.00
2023-03-06T08:48:01.467Z,30.47
2023-03-06T08:52:02.741Z,34.80
2023-03-06T08:56:04.527Z,33.73
2023-03-06T09:00:08.868Z,30.97
2023-03-06T09:04:11.629Z,29.00
2023-03-06T09:08:12.969Z,26.97
2023-03-06T09:12:14.356Z,28.47
2023-03-06T09:16:16.130Z,25.40
2023-03-06T09:20:18.510Z,25.43
2023-03-06T09:24:19.878Z,25.13
2023-03-06T09:28:22.139Z,26.70
2023-03-06T09:32:24.232Z,23.77
2023-03-06T09:36:25.569Z,27.33
2023-03-06T09:40:55.079Z,25.23
2023-03-06T09:44:59.961Z,24.87
2023-03-06T09:49:23.180Z,24.67
2023-03-06T09:53:36.420Z,22.27
2023-03-06T09:58:02.697Z,24.03
2023-03-06T10:02:15.950Z,25.53
2023-03-06T10:06:29.724Z,23.37
2023-03-06T10:10:46.725Z,26.20
2023-03-06T10:15:16.101Z,27.03
2023-03-06T10:19:19.950Z,25.33
2023-03-06T10:23:29.166Z,23.50
2023-03-06T10:27:46.190Z,24.73
2023-03-06T10:31:59.482Z,20.60
2023-03-06T10:36:00.881Z,19.10
2023-03-06T10:40:15.691Z,20.23
2023-03-06T10:44:19.263Z,21.87
2023-03-06T10:48:25.064Z,18.93
2023-03-06T10:52:30.590Z,17.07
2023-03-06T10:56:38.811Z,19.33
2023-03-06T11:00:40.191Z,19.43
2023-03-06T11:04:47.187Z,20.87
2023-03-06T11:08:48.537Z,21.13
2023-03-06T11:13:19.095Z,22.43
2023-03-06T11:17:28.809Z,22.97
2023-03-06T11:21:33.300Z,23.23
2023-03-06T11:25:40.657Z,28.40
2023-03-06T11:29:49.314Z,24.20
2023-03-06T11:34:12.052Z,24.83
2023-03-06T11:38:27.186Z,25.97
2023-03-06T11:42:34.271Z,25.87
2023-03-06T11:46:41.713Z,27.23
2023-03-06T11:50:49.139Z,24.60
2023-03-06T11:54:55.742Z,27.40
2023-03-06T11:59:41.591Z,23.00
2023-03-06T12:03:48.945Z,19.47
2023-03-06T12:08:23.113Z,22.43
2023-03-06T12:12:41.188Z,20.70
2023-03-06T12:17:03.918Z,24.80
2023-03-06T12:21:15.317Z,22.47
2023-03-06T12:25:39.429Z,21.50
2023-03-06T12:29:52.922Z,21.10
2023-03-06T12:34:04.414Z,22.60
2023-03-06T12:38:44.854Z,17.43
2023-03-06T12:43:00.448Z,17.63
2023-03-06T12:47:04.877Z,20.30
2023-03-06T12:51:11.010Z,18.20
2023-03-06T12:55:16.687Z,19.37
2023-03-06T12:59:44.133Z,18.10
2023-03-06T13:04:18.745Z,19.00
2023-03-06T13:08:57.046Z,16.07
2023-03-06T13:13:01.106Z,19.87
2023-03-06T13:17:20.685Z,15.73
2023-03-06T13:21:41.037Z,14.23
2023-03-06T13:25:48.596Z,14.20
2023-03-06T13:29:52.298Z,12.77
2023-03-06T13:33:57.283Z,12.73
2023-03-06T13:37:59.778Z,12.40
2023-03-06T13:42:01.324Z,13.27
2023-03-06T13:46:24.666Z,14.13
2023-03-06T13:50:33.060Z,14.43
2023-03-06T13:54:55.477Z,18.90
2023-03-06T13:59:18.141Z,16.50
2023-03-06T14:03:40.293Z,15.23
2023-03-06T14:07:47.037Z,16.80
2023-03-06T14:12:00.604Z,15.27
2023-03-06T14:16:10.012Z,17.20
2023-03-06T14:20:17.858Z,18.43
2023-03-06T14:24:27.849Z,17.53
2023-03-06T14:28:31.068Z,16.23
2023-03-06T14:32:32.595Z,17.20
2023-03-06T14:37:01.988Z,15.90
2023-03-06T14:41:05.286Z,16.47
2023-03-06T14:45:16.551Z,14.50
2023-03-06T14:49:19.906Z,14.47
2023-03-06T14:53:25.205Z,17.57
2023-03-06T14:57:26.810Z,16.70
2023-03-06T15:01:36.178Z,16.63
2023-03-06T15:05:38.254Z,16.63
2023-03-06T15:09:45.527Z,13.70
2023-03-06T15:14:00.973Z,14.63
2023-03-06T15:18:02.692Z,16.27
2023-03-06T15:22:04.045Z,15.60
2023-03-06T15:26:22.563Z,16.70
2023-03-06T15:30:37.047Z,15.10
2023-03-06T15:34:38.604Z,18.20
2023-03-06T15:38:45.384Z,15.07
2023-03-06T15:42:46.820Z,15.50
2023-03-06T15:46:49.981Z,14.93
2023-03-06T15:50:53.237Z,17.40
2023-03-06T15:54:54.558Z,16.93
2023-03-06T15:58:57.894Z,17.20
2023-03-06T16:02:59.307Z,19.90
2023-03-06T16:07:00.612Z,14.83
2023-03-06T16:11:01.955Z,16.03
2023-03-06T16:15:04.150Z,15.73
2023-03-06T16:19:23.796Z,19.27
2023-03-06T16:23:26.841Z,19.53
2023-03-06T16:27:28.908Z,18.70
2023-03-06T16:31:30.266Z,21.63
2023-03-06T16:35:31.905Z,22.73
2023-03-06T16:39:33.433Z,26.60
2023-03-06T16:43:34.886Z,19.30
2023-03-06T16:47:36.236Z,23.13
2023-03-06T16:51:39.637Z,19.10
2023-03-06T16:55:41.173Z,18.23
2023-03-06T16:59:42.545Z,20.17
2023-03-06T17:03:44.499Z,19.03
2023-03-06T17:07:46.311Z,20.27
2023-03-06T17:11:47.810Z,21.07
2023-03-06T17:15:56.414Z,20.17
2023-03-06T17:19:58.103Z,21.53
2023-03-06T17:24:01.596Z,23.73
2023-03-06T17:28:03.069Z,24.23
2023-03-06T17:32:04.530Z,20.00
2023-03-06T17:36:06.328Z,23.20
2023-03-06T17:40:09.615Z,27.97
2023-03-06T17:44:12.017Z,28.90
2023-03-06T17:48:14.083Z,26.47
2023-03-06T17:52:15.411Z,24.53
2023-03-06T17:56:16.725Z,29.97
2023-03-06T18:00:18.757Z,28.07
2023-03-06T18:04:20.030Z,25.60
2023-03-06T18:08:21.317Z,25.97
2023-03-06T18:12:22.711Z,24.77
2023-03-06T18:16:25.900Z,28.17
2023-03-06T18:20:27.484Z,24.60
2023-03-06T18:24:28.846Z,26.37
2023-03-06T18:28:30.707Z,20.50
2023-03-06T18:32:32.179Z,27.33
2023-03-06T18:36:34.350Z,23.57
2023-03-06T18:40:35.683Z,21.93
2023-03-06T18:44:37.040Z,23.63
2023-03-06T18:48:38.389Z,20.67
2023-03-06T18:52:39.701Z,21.47
2023-03-06T18:56:43.987Z,19.57
2023-03-06T19:00:45.775Z,22.70
2023-03-06T19:04:47.221Z,22.80
2023-03-06T19:08:48.576Z,22.60
2023-03-06T19:12:49.919Z,20.07
2023-03-06T19:16:51.275Z,22.57
2023-03-06T19:20:53.216Z,21.77
2023-03-06T19:24:54.559Z,21.97
2023-03-06T19:28:55.996Z,22.00
2023-03-06T19:32:57.429Z,22.63
2023-03-06T19:36:58.827Z,23.90
2023-03-06T19:41:03.363Z,19.93
2023-03-06T19:45:05.935Z,20.43
2023-03-06T19:49:11.943Z,19.03
2023-03-06T19:53:13.694Z,17.37
2023-03-06T19:57:15.134Z,19.43
2023-03-06T20:01:19.082Z,19.27
2023-03-06T20:05:20.436Z,18.33
2023-03-06T20:09:21.816Z,19.77
2023-03-06T20:13:23.242Z,18.47
2023-03-06T20:17:24.594Z,17.53
2023-03-06T20:21:30.765Z,17.33
2023-03-06T20:25:35.264Z,17.97
2023-03-06T20:29:36.570Z,16.63
2023-03-06T20:33:37.977Z,17.83
2023-03-06T20:37:41.056Z,18.23
2023-03-06T20:41:43.433Z,16.30
2023-03-06T20:45:56.246Z,17.77
2023-03-06T20:49:57.615Z,17.17
2023-03-06T20:54:00.991Z,19.90
2023-03-06T20:58:02.331Z,22.77
2023-03-06T21:02:03.908Z,20.03
2023-03-06T21:06:05.441Z,20.47
2023-03-06T21:10:07.647Z,19.90
2023-03-06T21:14:09.057Z,19.27
2023-03-06T21:18:11.363Z,21.53
2023-03-06T21:22:13.607Z,19.30
2023-03-06T21:26:26.983Z,19.20
2023-03-06T21:30:29.426Z,19.97
2023-03-06T21:34:30.734Z,20.40
2023-03-06T21:38:32.987Z,23.07
2023-03-06T21:42:37.371Z,22.13
2023-03-06T21:46:38.796Z,22.83
2023-03-06T21:50:40.962Z,22.77
2023-03-06T21:54:43.322Z,23.60
2023-03-06T21:58:45.577Z,26.03
2023-03-06T22:02:47.209Z,25.00
2023-03-06T22:06:48.526Z,24.93
2023-03-06T22:10:49.857Z,24.93
2023-03-06T22:14:51.669Z,25.43
2023-03-06T22:18:53.129Z,27.43
2023-03-06T22:22:54.525Z,27.97
2023-03-06T22:26:55.843Z,24.90
2023-03-06T22:31:05.518Z,24.83
2023-03-06T22:35:07.165Z,23.27
2023-03-06T22:39:11.986Z,23.50
2023-03-06T22:43:13.276Z,24.03
2023-03-06T22:47:14.660Z,22.90
2023-03-06T22:51:20.538Z,23.43
2023-03-06T22:55:21.930Z,22.33
2023-03-06T22:59:23.249Z,20.10
2023-03-06T23:03:24.585Z,23.20
2023-03-06T23:07:25.912Z,21.40
2023-03-06T23:11:28.830Z,20.90
2023-03-06T23:15:30.256Z,25.70
2023-03-06T23:19:31.606Z,21.10
2023-03-06T23:23:32.983Z,25.43
2023-03-06T23:27:35.986Z,23.53
2023-03-06T23:31:37.357Z,23.97
2023-03-06T23:35:39.524Z,22.97
2023-03-06T23:39:40.948Z,22.47
2023-03-06T23:43:42.694Z,21.43
2023-03-06T23:47:43.988Z,20.00
2023-03-06T23:51:45.546Z,20.80
2023-03-06T23:55:49.049Z,18.37
2023-03-06T23:59:50.426Z,15.47
